sensor_id;sensor_type;location;lat;lon;timestamp;noise_LAeq;noise_LA_min;noise_LA_max;noise_LA01;noise_LA95
17594;Laerm;8916;47.086;15.920;2024-02-28T00:01:25;49.14;47.81;50.26;;
17594;Laerm;8916;47.086;15.920;2024-02-28T00:03:54;49.13;47.91;50.35;;
17594;Laerm;8916;47.086;15.920;2024-02-28T00:06:23;49.12;47.95;50.26;;
17594;Laerm;8916;47.086;15.920;2024-02-28T00:08:52;49.12;48.02;50.32;;
17594;Laerm;8916;47.086;15.920;2024-02-28T00:11:22;49.13;47.95;50.36;;
17594;Laerm;8916;47.086;15.920;2024-02-28T00:13:51;49.14;47.98;50.37;;
17594;Laerm;8916;47.086;15.920;2024-02-28T00:16:20;49.13;48.05;50.36;;
17594;Laerm;8916;47.086;15.920;2024-02-28T00:18:51;49.14;48.12;50.25;;
17594;Laerm;8916;47.086;15.920;2024-02-28T00:21:20;49.14;47.93;50.35;;
17594;Laerm;8916;47.086;15.920;2024-02-28T00:23:49;49.14;47.81;50.13;;
17594;Laerm;8916;47.086;15.920;2024-02-28T00:26:18;49.13;48.07;50.25;;
17594;Laerm;8916;47.086;15.920;2024-02-28T00:28:47;49.14;48.03;50.32;;
17594;Laerm;8916;47.086;15.920;2024-02-28T00:31:16;49.14;47.86;50.70;;
17594;Laerm;8916;47.086;15.920;2024-02-28T00:33:45;49.33;47.96;52.64;;
17594;Laerm;8916;47.086;15.920;2024-02-28T00:36:15;49.92;48.00;52.94;;
17594;Laerm;8916;47.086;15.920;2024-02-28T00:38:44;49.14;48.02;50.19;;
17594;Laerm;8916;47.086;15.920;2024-02-28T00:41:14;49.15;48.10;50.37;;
17594;Laerm;8916;47.086;15.920;2024-02-28T00:43:43;49.14;48.07;50.34;;
17594;Laerm;8916;47.086;15.920;2024-02-28T00:46:12;49.14;47.98;50.30;;
17594;Laerm;8916;47.086;15.920;2024-02-28T00:48:41;49.15;47.90;50.34;;
17594;Laerm;8916;47.086;15.920;2024-02-28T00:51:10;49.13;47.96;50.38;;
17594;Laerm;8916;47.086;15.920;2024-02-28T00:53:40;49.13;47.90;50.23;;
17594;Laerm;8916;47.086;15.920;2024-02-28T00:56:10;49.14;48.00;50.27;;
17594;Laerm;8916;47.086;15.920;2024-02-28T00:58:39;49.14;48.03;50.18;;
17594;Laerm;8916;47.086;15.920;2024-02-28T01:01:08;49.13;48.12;50.15;;
17594;Laerm;8916;47.086;15.920;2024-02-28T01:03:37;49.14;48.02;50.43;;
17594;Laerm;8916;47.086;15.920;2024-02-28T01:06:06;49.14;48.12;50.40;;
17594;Laerm;8916;47.086;15.920;2024-02-28T01:08:35;49.14;47.96;50.23;;
17594;Laerm;8916;47.086;15.920;2024-02-28T01:11:06;49.14;47.83;50.24;;
17594;Laerm;8916;47.086;15.920;2024-02-28T01:13:35;49.14;48.07;50.24;;
17594;Laerm;8916;47.086;15.920;2024-02-28T01:16:05;49.14;47.90;50.35;;
17594;Laerm;8916;47.086;15.920;2024-02-28T01:18:34;49.14;48.00;50.23;;
17594;Laerm;8916;47.086;15.920;2024-02-28T01:21:03;49.14;47.98;50.17;;
17594;Laerm;8916;47.086;15.920;2024-02-28T01:23:32;49.15;47.93;50.20;;
17594;Laerm;8916;47.086;15.920;2024-02-28T01:26:02;49.14;47.98;50.56;;
17594;Laerm;8916;47.086;15.920;2024-02-28T01:28:35;49.15;48.07;50.27;;
17594;Laerm;8916;47.086;15.920;2024-02-28T01:31:04;49.15;48.00;50.27;;
17594;Laerm;8916;47.086;15.920;2024-02-28T01:33:33;49.20;48.13;50.85;;
17594;Laerm;8916;47.086;15.920;2024-02-28T01:36:04;49.22;48.22;50.72;;
17594;Laerm;8916;47.086;15.920;2024-02-28T01:38:34;49.30;48.07;51.70;;
17594;Laerm;8916;47.086;15.920;2024-02-28T01:41:03;49.82;48.15;51.79;;
17594;Laerm;8916;47.086;15.920;2024-02-28T01:43:34;49.74;48.39;51.76;;
17594;Laerm;8916;47.086;15.920;2024-02-28T01:46:07;49.73;48.25;51.70;;
17594;Laerm;8916;47.086;15.920;2024-02-28T01:48:42;50.73;48.12;55.64;;
17594;Laerm;8916;47.086;15.920;2024-02-28T01:51:11;49.69;48.13;51.59;;
17594;Laerm;8916;47.086;15.920;2024-02-28T01:53:41;49.68;48.29;51.61;;
17594;Laerm;8916;47.086;15.920;2024-02-28T01:56:10;49.63;48.32;51.51;;
17594;Laerm;8916;47.086;15.920;2024-02-28T01:58:42;49.58;47.90;51.58;;
17594;Laerm;8916;47.086;15.920;2024-02-28T02:01:14;49.54;48.20;51.20;;
17594;Laerm;8916;47.086;15.920;2024-02-28T02:03:49;51.16;48.12;55.46;;
17594;Laerm;8916;47.086;15.920;2024-02-28T02:06:18;51.33;48.34;53.41;;
17594;Laerm;8916;47.086;15.920;2024-02-28T02:08:47;51.21;48.55;53.32;;
17594;Laerm;8916;47.086;15.920;2024-02-28T02:11:17;51.29;48.42;53.72;;
17594;Laerm;8916;47.086;15.920;2024-02-28T02:13:49;51.19;48.43;53.05;;
17594;Laerm;8916;47.086;15.920;2024-02-28T02:16:19;51.20;48.54;53.17;;
17594;Laerm;8916;47.086;15.920;2024-02-28T02:18:50;50.92;48.52;53.22;;
17594;Laerm;8916;47.086;15.920;2024-02-28T02:21:22;50.88;48.42;52.89;;
17594;Laerm;8916;47.086;15.920;2024-02-28T02:23:53;50.82;48.57;52.66;;
17594;Laerm;8916;47.086;15.920;2024-02-28T02:26:22;50.75;48.52;52.80;;
17594;Laerm;8916;47.086;15.920;2024-02-28T02:28:51;50.71;48.52;52.74;;
17594;Laerm;8916;47.086;15.920;2024-02-28T02:31:20;50.63;48.54;52.99;;
17594;Laerm;8916;47.086;15.920;2024-02-28T02:33:49;50.57;48.37;52.42;;
17594;Laerm;8916;47.086;15.920;2024-02-28T02:36:18;50.51;48.45;52.35;;
17594;Laerm;8916;47.086;15.920;2024-02-28T02:38:47;50.44;48.31;52.26;;
17594;Laerm;8916;47.086;15.920;2024-02-28T02:41:18;50.45;48.45;52.45;;
17594;Laerm;8916;47.086;15.920;2024-02-28T02:43:47;50.36;48.42;52.43;;
17594;Laerm;8916;47.086;15.920;2024-02-28T02:46:16;50.40;48.29;52.48;;
17594;Laerm;8916;47.086;15.920;2024-02-28T02:48:45;50.31;48.29;52.29;;
17594;Laerm;8916;47.086;15.920;2024-02-28T02:51:15;50.39;48.42;52.52;;
17594;Laerm;8916;47.086;15.920;2024-02-28T02:53:45;50.35;48.34;52.76;;
17594;Laerm;8916;47.086;15.920;2024-02-28T02:56:14;50.33;48.34;52.18;;
17594;Laerm;8916;47.086;15.920;2024-02-28T02:58:44;50.26;48.34;52.42;;
17594;Laerm;8916;47.086;15.920;2024-02-28T03:01:13;50.29;48.37;52.09;;
17594;Laerm;8916;47.086;15.920;2024-02-28T03:03:42;50.21;48.18;52.31;;
17594;Laerm;8916;47.086;15.920;2024-02-28T03:06:11;50.19;48.48;52.14;;
17594;Laerm;8916;47.086;15.920;2024-02-28T03:08:40;50.18;48.43;51.98;;
17594;Laerm;8916;47.086;15.920;2024-02-28T03:11:09;50.12;48.42;52.00;;
17594;Laerm;8916;47.086;15.920;2024-02-28T03:13:39;50.08;48.29;52.08;;
17594;Laerm;8916;47.086;15.920;2024-02-28T03:16:09;50.09;48.34;51.94;;
17594;Laerm;8916;47.086;15.920;2024-02-28T03:18:39;50.07;48.36;51.97;;
17594;Laerm;8916;47.086;15.920;2024-02-28T03:21:08;50.09;48.15;52.08;;
17594;Laerm;8916;47.086;15.920;2024-02-28T03:23:37;50.03;48.21;51.96;;
17594;Laerm;8916;47.086;15.920;2024-02-28T03:26:06;50.02;48.43;52.09;;
17594;Laerm;8916;47.086;15.920;2024-02-28T03:28:35;50.06;48.32;51.76;;
17594;Laerm;8916;47.086;15.920;2024-02-28T03:31:04;50.06;48.21;52.01;;
17594;Laerm;8916;47.086;15.920;2024-02-28T03:33:34;50.03;48.46;51.82;;
17594;Laerm;8916;47.086;15.920;2024-02-28T03:36:04;49.95;48.16;51.68;;
17594;Laerm;8916;47.086;15.920;2024-02-28T03:38:33;49.96;48.31;51.76;;
17594;Laerm;8916;47.086;15.920;2024-02-28T03:41:02;49.94;48.36;51.86;;
17594;Laerm;8916;47.086;15.920;2024-02-28T03:43:31;49.96;48.18;51.83;;
17594;Laerm;8916;47.086;15.920;2024-02-28T03:46:00;49.93;48.20;51.76;;
17594;Laerm;8916;47.086;15.920;2024-02-28T03:48:29;49.91;48.20;51.57;;
17594;Laerm;8916;47.086;15.920;2024-02-28T03:51:00;49.89;48.32;51.82;;
17594;Laerm;8916;47.086;15.920;2024-02-28T03:53:29;49.91;48.42;51.75;;
17594;Laerm;8916;47.086;15.920;2024-02-28T03:55:58;49.87;48.37;51.80;;
17594;Laerm;8916;47.086;15.920;2024-02-28T03:58:28;49.85;48.23;51.42;;
17594;Laerm;8916;47.086;15.920;2024-02-28T04:00:57;49.81;48.32;51.67;;
17594;Laerm;8916;47.086;15.920;2024-02-28T04:03:26;49.82;48.43;51.83;;
17594;Laerm;8916;47.086;15.920;2024-02-28T04:05:55;49.77;48.29;51.71;;
17594;Laerm;8916;47.086;15.920;2024-02-28T04:08:25;49.75;48.45;51.35;;
17594;Laerm;8916;47.086;15.920;2024-02-28T04:10:54;49.80;48.37;51.70;;
17594;Laerm;8916;47.086;15.920;2024-02-28T04:13:23;49.76;48.43;51.51;;
17594;Laerm;8916;47.086;15.920;2024-02-28T04:15:52;49.76;48.21;51.56;;
17594;Laerm;8916;47.086;15.920;2024-02-28T04:18:21;49.75;48.20;51.51;;
17594;Laerm;8916;47.086;15.920;2024-02-28T04:20:50;49.76;48.49;51.37;;
17594;Laerm;8916;47.086;15.920;2024-02-28T04:23:19;49.79;48.39;51.42;;
17594;Laerm;8916;47.086;15.920;2024-02-28T04:25:50;49.73;48.21;51.17;;
17594;Laerm;8916;47.086;15.920;2024-02-28T04:28:19;49.73;48.23;51.39;;
17594;Laerm;8916;47.086;15.920;2024-02-28T04:30:48;49.74;48.39;51.34;;
17594;Laerm;8916;47.086;15.920;2024-02-28T04:33:17;49.71;48.28;51.25;;
17594;Laerm;8916;47.086;15.920;2024-02-28T04:35:46;49.68;48.34;51.47;;
17594;Laerm;8916;47.086;15.920;2024-02-28T04:38:15;49.67;48.15;51.16;;
17594;Laerm;8916;47.086;15.920;2024-02-28T04:40:44;49.69;48.40;51.30;;
17594;Laerm;8916;47.086;15.920;2024-02-28T04:43:15;49.67;48.34;51.29;;
17594;Laerm;8916;47.086;15.920;2024-02-28T04:45:44;49.70;48.26;51.46;;
17594;Laerm;8916;47.086;15.920;2024-02-28T04:48:13;49.69;48.25;51.30;;
17594;Laerm;8916;47.086;15.920;2024-02-28T04:50:42;49.71;48.40;51.58;;
17594;Laerm;8916;47.086;15.920;2024-02-28T04:53:11;49.73;48.37;51.25;;
17594;Laerm;8916;47.086;15.920;2024-02-28T04:55:40;49.69;48.10;51.10;;
17594;Laerm;8916;47.086;15.920;2024-02-28T04:58:09;49.69;48.20;51.37;;
17594;Laerm;8916;47.086;15.920;2024-02-28T05:00:39;49.67;48.25;51.01;;
17594;Laerm;8916;47.086;15.920;2024-02-28T05:03:08;49.68;48.26;51.20;;
17594;Laerm;8916;47.086;15.920;2024-02-28T05:05:38;49.69;48.31;51.46;;
17594;Laerm;8916;47.086;15.920;2024-02-28T05:08:07;49.69;48.28;51.22;;
17594;Laerm;8916;47.086;15.920;2024-02-28T05:10:36;49.70;48.16;51.34;;
17594;Laerm;8916;47.086;15.920;2024-02-28T05:13:06;49.68;48.34;51.20;;
17594;Laerm;8916;47.086;15.920;2024-02-28T05:15:35;49.72;48.42;51.72;;
17594;Laerm;8916;47.086;15.920;2024-02-28T05:18:06;49.67;48.29;51.44;;
17594;Laerm;8916;47.086;15.920;2024-02-28T05:20:35;49.68;48.31;51.48;;
17594;Laerm;8916;47.086;15.920;2024-02-28T05:23:04;49.67;48.36;51.17;;
17594;Laerm;8916;47.086;15.920;2024-02-28T05:25:33;49.69;48.42;51.29;;
17594;Laerm;8916;47.086;15.920;2024-02-28T05:28:02;49.70;48.42;51.16;;
17594;Laerm;8916;47.086;15.920;2024-02-28T05:30:31;49.69;48.34;51.59;;
17594;Laerm;8916;47.086;15.920;2024-02-28T05:33:00;49.69;48.32;51.22;;
17594;Laerm;8916;47.086;15.920;2024-02-28T05:35:31;49.69;48.36;51.37;;
17594;Laerm;8916;47.086;15.920;2024-02-28T05:38:00;49.70;48.21;51.47;;
17594;Laerm;8916;47.086;15.920;2024-02-28T05:40:30;49.68;48.48;51.35;;
17594;Laerm;8916;47.086;15.920;2024-02-28T05:42:59;49.47;48.29;51.56;;
17594;Laerm;8916;47.086;15.920;2024-02-28T05:45:30;49.47;48.23;51.48;;
17594;Laerm;8916;47.086;15.920;2024-02-28T05:47:59;49.48;48.15;52.02;;
17594;Laerm;8916;47.086;15.920;2024-02-28T05:50:28;49.44;48.25;50.88;;
17594;Laerm;8916;47.086;15.920;2024-02-28T05:52:59;49.39;48.05;50.91;;
17594;Laerm;8916;47.086;15.920;2024-02-28T05:55:28;49.45;48.13;51.01;;
17594;Laerm;8916;47.086;15.920;2024-02-28T05:57:57;49.43;48.32;51.08;;
17594;Laerm;8916;47.086;15.920;2024-02-28T06:00:26;49.44;48.03;51.59;;
17594;Laerm;8916;47.086;15.920;2024-02-28T06:02:55;49.43;48.15;50.79;;
17594;Laerm;8916;47.086;15.920;2024-02-28T06:05:24;49.44;47.93;51.27;;
17594;Laerm;8916;47.086;15.920;2024-02-28T06:07:54;49.45;48.12;51.32;;
17594;Laerm;8916;47.086;15.920;2024-02-28T06:10:24;49.44;48.29;50.98;;
17594;Laerm;8916;47.086;15.920;2024-02-28T06:12:53;49.43;48.25;51.18;;
17594;Laerm;8916;47.086;15.920;2024-02-28T06:15:22;49.42;48.05;51.05;;
17594;Laerm;8916;47.086;15.920;2024-02-28T06:17:51;49.42;48.10;51.50;;
17594;Laerm;8916;47.086;15.920;2024-02-28T06:20:20;49.42;48.34;51.26;;
17594;Laerm;8916;47.086;15.920;2024-02-28T06:22:49;49.28;48.21;50.87;;
17594;Laerm;8916;47.086;15.920;2024-02-28T06:25:18;49.27;48.08;50.72;;
17594;Laerm;8916;47.086;15.920;2024-02-28T06:27:51;49.24;48.15;50.47;;
17594;Laerm;8916;47.086;15.920;2024-02-28T06:30:21;49.23;48.13;50.41;;
17594;Laerm;8916;47.086;15.920;2024-02-28T06:32:50;49.29;48.26;50.68;;
17594;Laerm;8916;47.086;15.920;2024-02-28T06:35:19;49.28;48.05;50.93;;
17594;Laerm;8916;47.086;15.920;2024-02-28T06:37:48;49.30;48.21;50.99;;
17594;Laerm;8916;47.086;15.920;2024-02-28T06:40:18;49.30;48.15;51.21;;
17594;Laerm;8916;47.086;15.920;2024-02-28T06:42:47;49.27;48.13;50.86;;
17594;Laerm;8916;47.086;15.920;2024-02-28T06:45:17;49.28;48.02;50.83;;
17594;Laerm;8916;47.086;15.920;2024-02-28T06:47:47;49.25;48.08;50.60;;
17594;Laerm;8916;47.086;15.920;2024-02-28T06:50:16;49.26;48.18;50.84;;
17594;Laerm;8916;47.086;15.920;2024-02-28T06:52:45;49.27;48.05;50.96;;
17594;Laerm;8916;47.086;15.920;2024-02-28T06:55:15;49.28;48.08;50.79;;
17594;Laerm;8916;47.086;15.920;2024-02-28T06:57:43;49.27;47.81;51.24;;
17594;Laerm;8916;47.086;15.920;2024-02-28T07:00:13;49.24;48.25;51.14;;
17594;Laerm;8916;47.086;15.920;2024-02-28T07:02:45;49.22;48.15;51.11;;
17594;Laerm;8916;47.086;15.920;2024-02-28T07:05:14;49.21;48.12;50.92;;
17594;Laerm;8916;47.086;15.920;2024-02-28T07:07:43;49.21;48.00;50.95;;
17594;Laerm;8916;47.086;15.920;2024-02-28T07:10:12;49.20;48.00;50.93;;
17594;Laerm;8916;47.086;15.920;2024-02-28T07:12:42;49.19;47.93;50.82;;
17594;Laerm;8916;47.086;15.920;2024-02-28T07:15:11;49.18;48.21;51.60;;
17594;Laerm;8916;47.086;15.920;2024-02-28T07:17:40;49.16;47.88;50.92;;
17594;Laerm;8916;47.086;15.920;2024-02-28T07:20:11;49.16;48.02;50.51;;
17594;Laerm;8916;47.086;15.920;2024-02-28T07:22:43;49.19;47.93;51.82;;
17594;Laerm;8916;47.086;15.920;2024-02-28T07:25:12;49.14;48.05;50.26;;
17594;Laerm;8916;47.086;15.920;2024-02-28T07:27:41;49.15;48.00;51.44;;
17594;Laerm;8916;47.086;15.920;2024-02-28T07:30:11;49.12;47.88;50.24;;
17594;Laerm;8916;47.086;15.920;2024-02-28T07:32:40;49.11;48.00;50.31;;
17594;Laerm;8916;47.086;15.920;2024-02-28T07:35:12;49.11;47.79;50.68;;
17594;Laerm;8916;47.086;15.920;2024-02-28T07:37:41;49.10;47.91;50.72;;
17594;Laerm;8916;47.086;15.920;2024-02-28T07:40:11;49.09;47.98;50.34;;
17594;Laerm;8916;47.086;15.920;2024-02-28T07:42:40;49.08;47.98;50.61;;
17594;Laerm;8916;47.086;15.920;2024-02-28T07:45:09;49.08;48.02;50.33;;
17594;Laerm;8916;47.086;15.920;2024-02-28T07:47:38;49.08;47.98;50.34;;
17594;Laerm;8916;47.086;15.920;2024-02-28T07:50:08;49.08;47.91;50.48;;
17594;Laerm;8916;47.086;15.920;2024-02-28T07:52:38;49.09;47.79;50.13;;
17594;Laerm;8916;47.086;15.920;2024-02-28T07:55:07;49.08;47.96;50.43;;
17594;Laerm;8916;47.086;15.920;2024-02-28T07:57:36;49.08;48.02;50.28;;
17594;Laerm;8916;47.086;15.920;2024-02-28T08:00:07;49.08;47.79;50.22;;
17594;Laerm;8916;47.086;15.920;2024-02-28T08:02:39;49.08;47.86;50.35;;
17594;Laerm;8916;47.086;15.920;2024-02-28T08:05:08;49.08;47.95;50.20;;
17594;Laerm;8916;47.086;15.920;2024-02-28T08:07:39;49.07;47.77;53.63;;
17594;Laerm;8916;47.086;15.920;2024-02-28T08:10:09;49.05;47.70;50.11;;
17594;Laerm;8916;47.086;15.920;2024-02-28T08:12:39;49.04;47.98;50.14;;
17594;Laerm;8916;47.086;15.920;2024-02-28T08:15:09;49.04;48.00;50.29;;
17594;Laerm;8916;47.086;15.920;2024-02-28T08:17:39;49.05;47.91;50.17;;
17594;Laerm;8916;47.086;15.920;2024-02-28T08:20:08;49.05;47.98;50.31;;
17594;Laerm;8916;47.086;15.920;2024-02-28T08:22:39;49.08;48.05;50.22;;
17594;Laerm;8916;47.086;15.920;2024-02-28T08:25:08;49.06;48.00;51.03;;
17594;Laerm;8916;47.086;15.920;2024-02-28T08:27:39;49.06;47.95;50.34;;
17594;Laerm;8916;47.086;15.920;2024-02-28T08:30:10;49.07;47.67;50.15;;
17594;Laerm;8916;47.086;15.920;2024-02-28T08:32:40;49.06;47.93;50.23;;
17594;Laerm;8916;47.086;15.920;2024-02-28T08:35:10;49.05;47.96;50.38;;
17594;Laerm;8916;47.086;15.920;2024-02-28T08:37:40;49.03;47.91;50.22;;
17594;Laerm;8916;47.086;15.920;2024-02-28T08:40:10;49.03;48.03;50.42;;
17594;Laerm;8916;47.086;15.920;2024-02-28T08:42:40;49.00;47.96;52.68;;
17594;Laerm;8916;47.086;15.920;2024-02-28T08:45:13;49.04;47.95;50.52;;
17594;Laerm;8916;47.086;15.920;2024-02-28T08:47:43;49.02;47.81;50.36;;
17594;Laerm;8916;47.086;15.920;2024-02-28T08:50:12;49.01;47.81;50.16;;
17594;Laerm;8916;47.086;15.920;2024-02-28T08:52:42;49.04;47.81;51.91;;
17594;Laerm;8916;47.086;15.920;2024-02-28T08:55:11;49.02;47.90;52.15;;
17594;Laerm;8916;47.086;15.920;2024-02-28T08:57:40;49.02;47.65;50.50;;
17594;Laerm;8916;47.086;15.920;2024-02-28T09:00:11;49.02;47.98;51.21;;
17594;Laerm;8916;47.086;15.920;2024-02-28T09:02:41;48.98;47.83;51.38;;
17594;Laerm;8916;47.086;15.920;2024-02-28T09:05:10;48.94;47.70;53.41;;
17594;Laerm;8916;47.086;15.920;2024-02-28T09:07:39;48.89;47.72;54.36;;
17594;Laerm;8916;47.086;15.920;2024-02-28T09:10:10;48.91;47.70;54.74;;
17594;Laerm;8916;47.086;15.920;2024-02-28T09:12:39;48.82;47.77;50.11;;
17594;Laerm;8916;47.086;15.920;2024-02-28T09:15:09;48.82;47.67;53.84;;
17594;Laerm;8916;47.086;15.920;2024-02-28T09:17:38;48.82;47.46;54.45;;
17594;Laerm;8916;47.086;15.920;2024-02-28T09:20:08;48.83;47.50;50.05;;
17594;Laerm;8916;47.086;15.920;2024-02-28T09:22:38;48.83;47.68;49.95;;
17594;Laerm;8916;47.086;15.920;2024-02-28T09:25:09;48.87;47.74;50.16;;
17594;Laerm;8916;47.086;15.920;2024-02-28T09:27:38;48.90;47.70;50.39;;
17594;Laerm;8916;47.086;15.920;2024-02-28T09:30:08;49.26;48.07;51.29;;
17594;Laerm;8916;47.086;15.920;2024-02-28T09:32:37;49.17;47.76;50.41;;
17594;Laerm;8916;47.086;15.920;2024-02-28T09:35:06;48.83;47.60;50.42;;
17594;Laerm;8916;47.086;15.920;2024-02-28T09:37:36;48.83;47.65;50.03;;
17594;Laerm;8916;47.086;15.920;2024-02-28T09:40:11;48.83;47.68;51.27;;
17594;Laerm;8916;47.086;15.920;2024-02-28T09:42:41;48.83;47.63;53.62;;
17594;Laerm;8916;47.086;15.920;2024-02-28T09:45:12;48.83;47.67;51.93;;
17594;Laerm;8916;47.086;15.920;2024-02-28T09:47:43;48.85;47.57;51.20;;
17594;Laerm;8916;47.086;15.920;2024-02-28T09:50:13;48.85;47.68;50.10;;
17594;Laerm;8916;47.086;15.920;2024-02-28T09:52:42;48.90;47.79;54.69;;
17594;Laerm;8916;47.086;15.920;2024-02-28T09:55:20;48.88;47.76;54.40;;
17594;Laerm;8916;47.086;15.920;2024-02-28T09:57:49;48.88;47.65;53.79;;
17594;Laerm;8916;47.086;15.920;2024-02-28T10:00:20;48.86;47.63;50.10;;
17594;Laerm;8916;47.086;15.920;2024-02-28T10:02:50;48.86;47.57;50.18;;
17594;Laerm;8916;47.086;15.920;2024-02-28T10:05:19;48.85;47.70;53.96;;
17594;Laerm;8916;47.086;15.920;2024-02-28T10:07:49;48.86;47.72;53.99;;
17594;Laerm;8916;47.086;15.920;2024-02-28T10:10:20;48.86;47.98;54.40;;
17594;Laerm;8916;47.086;15.920;2024-02-28T10:12:50;48.88;47.83;54.92;;
17594;Laerm;8916;47.086;15.920;2024-02-28T10:15:19;48.90;47.72;55.26;;
17594;Laerm;8916;47.086;15.920;2024-02-28T10:17:49;48.93;47.74;55.45;;
17594;Laerm;8916;47.086;15.920;2024-02-28T10:20:19;48.94;47.63;55.57;;
17594;Laerm;8916;47.086;15.920;2024-02-28T10:22:48;48.89;47.61;55.30;;
17594;Laerm;8916;47.086;15.920;2024-02-28T10:25:17;48.91;47.70;55.58;;
17594;Laerm;8916;47.086;15.920;2024-02-28T10:27:48;48.92;47.59;57.03;;
17594;Laerm;8916;47.086;15.920;2024-02-28T10:30:19;48.89;47.74;56.03;;
17594;Laerm;8916;47.086;15.920;2024-02-28T10:32:50;49.18;47.70;60.09;;
17594;Laerm;8916;47.086;15.920;2024-02-28T10:35:20;49.09;47.65;58.12;;
17594;Laerm;8916;47.086;15.920;2024-02-28T10:37:53;49.38;47.57;59.43;;
17594;Laerm;8916;47.086;15.920;2024-02-28T10:40:24;48.92;47.65;56.15;;
17594;Laerm;8916;47.086;15.920;2024-02-28T10:42:56;48.77;47.59;54.66;;
17594;Laerm;8916;47.086;15.920;2024-02-28T10:45:28;48.85;47.59;53.99;;
17594;Laerm;8916;47.086;15.920;2024-02-28T10:48:19;48.82;47.54;53.69;;
17594;Laerm;8916;47.086;15.920;2024-02-28T10:50:50;48.79;47.65;52.90;;
17594;Laerm;8916;47.086;15.920;2024-02-28T10:53:28;48.77;47.63;49.97;;
17594;Laerm;8916;47.086;15.920;2024-02-28T10:56:03;48.76;47.61;49.83;;
17594;Laerm;8916;47.086;15.920;2024-02-28T10:58:36;49.10;47.72;54.81;;
17594;Laerm;8916;47.086;15.920;2024-02-28T11:01:05;49.31;47.86;50.79;;
17594;Laerm;8916;47.086;15.920;2024-02-28T11:03:35;49.33;48.13;50.70;;
17594;Laerm;8916;47.086;15.920;2024-02-28T11:06:04;49.18;47.63;50.63;;
17594;Laerm;8916;47.086;15.920;2024-02-28T11:08:46;48.76;47.38;55.20;;
17594;Laerm;8916;47.086;15.920;2024-02-28T11:11:16;48.76;47.61;49.87;;
17594;Laerm;8916;47.086;15.920;2024-02-28T11:13:53;48.76;47.52;49.91;;
17594;Laerm;8916;47.086;15.920;2024-02-28T11:16:28;48.76;47.68;49.94;;
17594;Laerm;8916;47.086;15.920;2024-02-28T11:18:58;48.75;47.83;49.82;;
17594;Laerm;8916;47.086;15.920;2024-02-28T11:21:29;48.77;47.74;54.89;;
17594;Laerm;8916;47.086;15.920;2024-02-28T11:23:59;48.91;47.68;54.18;;
17594;Laerm;8916;47.086;15.920;2024-02-28T11:26:29;48.76;47.59;49.80;;
17594;Laerm;8916;47.086;15.920;2024-02-28T11:28:59;48.77;47.63;49.88;;
17594;Laerm;8916;47.086;15.920;2024-02-28T11:31:28;48.77;47.74;50.05;;
17594;Laerm;8916;47.086;15.920;2024-02-28T11:33:57;48.77;47.67;50.37;;
17594;Laerm;8916;47.086;15.920;2024-02-28T11:36:26;48.77;47.74;49.88;;
17594;Laerm;8916;47.086;15.920;2024-02-28T11:38:56;48.76;47.52;54.85;;
17594;Laerm;8916;47.086;15.920;2024-02-28T11:41:26;48.75;47.72;54.23;;
17594;Laerm;8916;47.086;15.920;2024-02-28T11:43:56;48.74;47.55;49.94;;
17594;Laerm;8916;47.086;15.920;2024-02-28T11:46:26;48.76;47.59;49.95;;
17594;Laerm;8916;47.086;15.920;2024-02-28T11:48:56;48.76;47.74;49.93;;
17594;Laerm;8916;47.086;15.920;2024-02-28T11:51:25;48.75;47.50;49.92;;
17594;Laerm;8916;47.086;15.920;2024-02-28T11:53:54;48.78;47.54;54.65;;
17594;Laerm;8916;47.086;15.920;2024-02-28T11:56:23;48.77;47.62;54.53;;
17594;Laerm;8916;47.086;15.920;2024-02-28T11:58:53;48.76;47.70;49.84;;
17594;Laerm;8916;47.086;15.920;2024-02-28T12:01:35;48.76;47.50;49.98;;
17594;Laerm;8916;47.086;15.920;2024-02-28T12:04:05;48.77;47.77;50.05;;
17594;Laerm;8916;47.086;15.920;2024-02-28T12:06:35;48.78;47.77;54.17;;
17594;Laerm;8916;47.086;15.920;2024-02-28T12:09:07;48.80;47.65;53.27;;
17594;Laerm;8916;47.086;15.920;2024-02-28T12:11:37;48.81;47.67;52.46;;
17594;Laerm;8916;47.086;15.920;2024-02-28T12:14:07;48.81;47.65;54.79;;
17594;Laerm;8916;47.086;15.920;2024-02-28T12:16:39;48.85;47.59;52.75;;
17594;Laerm;8916;47.086;15.920;2024-02-28T12:19:11;48.79;47.50;50.55;;
17594;Laerm;8916;47.086;15.920;2024-02-28T12:21:41;48.79;47.67;49.95;;
17594;Laerm;8916;47.086;15.920;2024-02-28T12:24:11;48.79;47.32;52.37;;
17594;Laerm;8916;47.086;15.920;2024-02-28T12:26:40;48.76;47.70;52.03;;
17594;Laerm;8916;47.086;15.920;2024-02-28T12:29:09;48.83;47.55;53.61;;
17594;Laerm;8916;47.086;15.920;2024-02-28T12:31:40;48.82;47.68;57.15;;
17594;Laerm;8916;47.086;15.920;2024-02-28T12:34:09;48.80;47.67;54.94;;
17594;Laerm;8916;47.086;15.920;2024-02-28T12:36:38;48.79;47.52;53.28;;
17594;Laerm;8916;47.086;15.920;2024-02-28T12:39:10;48.72;47.46;49.90;;
17594;Laerm;8916;47.086;15.920;2024-02-28T12:41:39;48.70;47.65;49.97;;
17594;Laerm;8916;47.086;15.920;2024-02-28T12:44:08;48.68;47.54;52.79;;
17594;Laerm;8916;47.086;15.920;2024-02-28T12:46:37;48.80;47.57;55.42;;
17594;Laerm;8916;47.086;15.920;2024-02-28T12:49:08;48.87;47.63;56.97;;
17594;Laerm;8916;47.086;15.920;2024-02-28T12:51:40;48.78;47.54;56.11;;
17594;Laerm;8916;47.086;15.920;2024-02-28T12:54:10;48.62;47.41;50.01;;
17594;Laerm;8916;47.086;15.920;2024-02-28T12:56:39;48.84;47.74;56.56;;
17594;Laerm;8916;47.086;15.920;2024-02-28T12:59:11;48.78;47.50;54.92;;
17594;Laerm;8916;47.086;15.920;2024-02-28T13:01:40;48.85;47.36;56.99;;
17594;Laerm;8916;47.086;15.920;2024-02-28T13:04:12;48.86;47.70;56.24;;
17594;Laerm;8916;47.086;15.920;2024-02-28T13:06:41;48.86;47.54;61.11;;
17594;Laerm;8916;47.086;15.920;2024-02-28T13:09:10;48.79;47.65;55.95;;
17594;Laerm;8916;47.086;15.920;2024-02-28T13:11:41;48.83;47.54;56.24;;
17594;Laerm;8916;47.086;15.920;2024-02-28T13:14:10;48.86;47.61;57.24;;
17594;Laerm;8916;47.086;15.920;2024-02-28T13:16:39;48.82;47.50;56.37;;
17594;Laerm;8916;47.086;15.920;2024-02-28T13:19:08;48.70;47.52;56.84;;
17594;Laerm;8916;47.086;15.920;2024-02-28T13:21:39;48.65;47.59;49.88;;
17594;Laerm;8916;47.086;15.920;2024-02-28T13:24:08;48.80;47.59;56.23;;
17594;Laerm;8916;47.086;15.920;2024-02-28T13:26:38;48.76;47.50;56.20;;
17594;Laerm;8916;47.086;15.920;2024-02-28T13:29:07;48.67;47.55;56.49;;
17594;Laerm;8916;47.086;15.920;2024-02-28T13:31:36;48.75;47.42;56.03;;
17594;Laerm;8916;47.086;15.920;2024-02-28T13:34:05;48.86;47.63;55.31;;
17594;Laerm;8916;47.086;15.920;2024-02-28T13:36:34;48.84;47.72;56.17;;
17594;Laerm;8916;47.086;15.920;2024-02-28T13:39:12;48.84;47.67;56.42;;
17594;Laerm;8916;47.086;15.920;2024-02-28T13:41:41;48.87;47.61;58.21;;
17594;Laerm;8916;47.086;15.920;2024-02-28T13:44:10;49.70;47.48;66.05;;
17594;Laerm;8916;47.086;15.920;2024-02-28T13:46:39;49.02;47.40;62.35;;
17594;Laerm;8916;47.086;15.920;2024-02-28T13:49:09;49.86;47.54;63.38;;
17594;Laerm;8916;47.086;15.920;2024-02-28T13:51:38;48.98;47.59;57.35;;
17594;Laerm;8916;47.086;15.920;2024-02-28T13:54:09;49.08;47.38;59.31;;
17594;Laerm;8916;47.086;15.920;2024-02-28T13:56:40;48.90;47.52;57.81;;
17594;Laerm;8916;47.086;15.920;2024-02-28T13:59:09;48.80;47.54;57.67;;